< Typhoon 201326 2013 Season Typhoon 201328 >
Typhoon 201327 (FRANCISCO)
General InformationTrack Information on Google MapsDetailed Wind InformationForecast History on Google MapsAccess Analytics MapList of All Images || NewsDisaster Info.WeblogTrackbackTyphoon FrontTwiphoonTyphoon Now!Typhoon ImaginationDisaster Info. XMLResourceGoogle EarthGE AnimationAtom FeedGeoJSON
Detalied Best Track (Time Zone = UTC)
Year Month Day Hour Lat. Long. Pressure (hPa) Wind (kt) Class Image Chart
2013 10 15 12 13.8 148.9 1008 0 2 Image Chart
2013 10 15 18 13.4 147.0 1004 0 2 Image Chart
2013 10 16 00 12.7 145.5 1004 0 2 Image Chart
2013 10 16 06 12.1 144.4 1000 35 3 Image Chart
2013 10 16 12 11.3 143.5 996 40 3 Image Chart
2013 10 16 18 10.8 143.0 990 50 4 Image Chart
2013 10 17 00 11.0 142.8 985 55 4 Image Chart
2013 10 17 06 11.4 142.8 975 65 5 Image Chart
2013 10 17 12 12.0 142.9 970 70 5 Image Chart
2013 10 17 18 13.0 142.6 965 75 5 Image Chart
2013 10 18 00 13.8 142.2 950 85 5 Image Chart
2013 10 18 06 14.2 142.0 935 95 5 Image Chart
2013 10 18 12 15.2 141.9 930 100 5 Image Chart
2013 10 18 18 15.9 141.1 920 105 5 Image Chart
2013 10 19 00 16.2 140.4 920 105 5 Image Chart
2013 10 19 06 16.7 139.7 920 105 5 Image Chart
2013 10 19 12 17.1 139.1 920 105 5 Image Chart
2013 10 19 18 17.4 138.3 920 105 5 Image Chart
2013 10 20 00 17.8 137.7 920 105 5 Image Chart
2013 10 20 06 18.3 137.3 925 100 5 Image Chart
2013 10 20 12 18.7 136.9 925 100 5 Image Chart
2013 10 20 18 19.3 136.7 935 95 5 Image Chart
2013 10 21 00 19.7 136.2 940 90 5 Image Chart
2013 10 21 06 20.3 135.9 940 90 5 Image Chart
2013 10 21 12 21.0 135.6 940 90 5 Image Chart
2013 10 21 18 21.6 135.2 940 90 5 Image Chart
2013 10 22 00 22.3 134.5 945 85 5 Image Chart
2013 10 22 06 22.8 133.7 945 85 5 Image Chart
2013 10 22 12 23.2 133.0 945 85 5 Image Chart
2013 10 22 18 23.5 132.2 945 85 5 Image Chart
2013 10 23 00 23.9 131.2 950 80 5 Image Chart
2013 10 23 06 24.3 130.5 955 75 5 Image Chart
2013 10 23 09 24.4 130.4 955 75 5 Image Chart
2013 10 23 12 24.6 130.1 955 70 5 Image Chart
2013 10 23 15 24.7 130.1 955 70 5 Image Chart
2013 10 23 18 24.9 129.9 960 70 5 Image Chart
2013 10 23 21 25.0 129.8 960 70 5 Image Chart
2013 10 24 00 25.1 129.7 960 65 5 Image Chart
2013 10 24 03 25.4 129.8 960 65 5 Image Chart
2013 10 24 06 25.7 129.9 960 65 5 Image Chart
2013 10 24 09 25.9 130.1 960 65 5 Image Chart
2013 10 24 12 26.1 130.2 960 65 5 Image Chart
2013 10 24 15 26.5 130.4 960 65 5 Image Chart
2013 10 24 18 26.9 130.7 965 60 4 Image Chart
2013 10 24 21 27.4 131.2 965 60 4 Image Chart
2013 10 25 00 27.6 131.7 965 60 4 Image Chart
2013 10 25 06 28.7 132.9 965 60 4 Image Chart
2013 10 25 12 29.6 134.7 970 60 4 Image Chart
2013 10 25 15 30.0 135.9 970 60 4 Image Chart
2013 10 25 18 31.1 137.4 970 60 4 Image Chart
2013 10 25 21 31.4 138.5 975 55 4 Image Chart
2013 10 26 00 31.8 139.9 980 50 4 Image Chart
2013 10 26 03 32.2 141.6 980 50 4 Image Chart
2013 10 26 06 33.0 144.2 984 0 6 Image Chart
2013 10 26 12 36.5 149.4 988 0 6 Image Chart
Japan Meteorological Agency Best Track Data | Correction Date : 2013-11-20
< Typhoon 201326 2013 Season Typhoon 201328 >

Help